Time;durP1;ratioP1;P1;durP2;ratioP2;P2;SDS_P1;SDS_P2;PMS_P1;PMS_P2;Temp;Humidity;BMP_temperature;BMP_pressure;BME280_temperature;BME280_humidity;BME280_pressure;Samples;Min_cycle;Max_cycle;Signal;HPM_P1;HPM_P2
2022/09/29 00:01:31;;;;;;;3.33;1.73;;;;;;;9.68;64.81;95690.22;4848159;29;20259;-78
2022/09/29 00:03:56;;;;;;;2.80;1.90;;;;;;;9.67;64.80;95688.66;4834220;29;20249;-79
2022/09/29 00:06:21;;;;;;;8.48;2.08;;;;;;;9.57;64.96;95688.75;4851165;29;20346;-78
2022/09/29 00:08:47;;;;;;;4.97;2.17;;;;;;;9.65;65.02;95692.59;4849824;29;20371;-78
2022/09/29 00:11:15;;;;;;;3.83;1.80;;;;;;;9.54;65.21;95687.50;4849230;29;20196;-78
2022/09/29 00:13:40;;;;;;;3.95;2.05;;;;;;;9.57;65.29;95688.75;4847389;29;20315;-78
2022/09/29 00:16:06;;;;;;;2.63;1.50;;;;;;;9.52;65.24;95686.97;4843898;29;20568;-78
2022/09/29 00:18:32;;;;;;;2.28;1.40;;;;;;;9.55;65.42;95688.25;4854035;29;20105;-78
2022/09/29 00:21:03;;;;;;;4.60;1.90;;;;;;;9.46;65.42;95682.88;4845003;29;20207;-78
2022/09/29 00:23:29;;;;;;;2.88;1.88;;;;;;;9.59;66.22;95685.88;4855782;29;20281;-79
2022/09/29 00:26:22;;;;;;;4.43;2.08;;;;;;;9.44;66.17;95690.19;4839751;29;20355;-78
2022/09/29 00:28:54;;;;;;;3.00;2.13;;;;;;;9.64;65.80;95688.44;4852114;29;20360;-79
2022/09/29 00:31:20;;;;;;;4.20;2.13;;;;;;;9.72;65.85;95675.63;4850631;29;20212;-78
2022/09/29 00:33:46;;;;;;;4.75;2.60;;;;;;;9.71;66.05;95683.69;4834267;29;20614;-78
2022/09/29 00:36:14;;;;;;;5.85;2.00;;;;;;;9.70;65.69;95677.72;4849801;29;20333;-78
2022/09/29 00:38:40;;;;;;;4.93;2.05;;;;;;;9.65;65.89;95685.56;4853864;29;20195;-78
2022/09/29 00:41:07;;;;;;;3.65;2.08;;;;;;;9.51;65.42;95685.44;4837015;29;20272;-78
2022/09/29 00:44:01;;;;;;;3.92;2.13;;;;;;;9.30;65.80;95686.66;4851664;29;20233;-78
2022/09/29 00:46:48;;;;;;;6.18;2.30;;;;;;;9.25;65.79;95686.69;4855721;29;20255;-80
2022/09/29 00:49:26;;;;;;;3.25;1.92;;;;;;;9.45;66.26;95683.16;4848952;29;20292;-78
2022/09/29 00:52:00;;;;;;;3.08;2.05;;;;;;;9.24;65.79;95690.34;4852012;29;20275;-79
2022/09/29 00:54:28;;;;;;;3.80;1.80;;;;;;;9.23;65.97;95681.00;4852254;29;20322;-78
2022/09/29 00:56:55;;;;;;;3.83;1.77;;;;;;;9.28;65.79;95676.53;4837975;29;20177;-78
2022/09/29 00:59:27;;;;;;;4.53;2.05;;;;;;;9.18;66.13;95672.22;4832659;29;20201;-79
2022/09/29 01:01:52;;;;;;;3.83;1.48;;;;;;;9.27;65.51;95675.00;4846825;29;20730;-78
2022/09/29 01:04:18;;;;;;;2.63;1.40;;;;;;;9.27;65.50;95684.59;4819740;29;20223;-79
2022/09/29 01:06:53;;;;;;;2.97;1.77;;;;;;;9.09;65.33;95673.81;4852403;29;20204;-78
2022/09/29 01:09:22;;;;;;;5.05;1.98;;;;;;;9.13;65.57;95674.06;4837804;29;20256;-78
2022/09/29 01:11:51;;;;;;;2.53;1.80;;;;;;;9.21;65.77;95683.09;4849575;29;20490;-78
2022/09/29 01:14:16;;;;;;;4.30;1.83;;;;;;;9.23;65.86;95678.41;4850657;29;20192;-78
2022/09/29 01:16:42;;;;;;;2.85;1.73;;;;;;;9.19;65.47;95678.94;4837030;29;20166;-78
2022/09/29 01:19:29;;;;;;;2.92;1.60;;;;;;;9.02;65.83;95672.59;4853863;29;20248;-79
2022/09/29 01:22:19;;;;;;;2.10;1.70;;;;;;;9.06;66.10;95676.19;4832319;29;20204;-78
2022/09/29 01:25:20;;;;;;;2.42;1.60;;;;;;;9.04;65.65;95675.69;4850737;29;20179;-79
2022/09/29 01:28:08;;;;;;;1.92;1.23;;;;;;;8.98;65.74;95678.31;4845983;29;20642;-78
2022/09/29 01:30:46;;;;;;;2.67;1.45;;;;;;;9.06;65.22;95673.59;4849109;29;20217;-78
2022/09/29 01:33:11;;;;;;;4.25;1.90;;;;;;;9.14;65.52;95673.00;4850357;29;20626;-79
2022/09/29 01:36:00;;;;;;;3.72;2.05;;;;;;;8.96;66.35;95679.63;4851313;29;20252;-78
2022/09/29 01:38:51;;;;;;;3.72;1.58;;;;;;;9.04;65.97;95671.25;4851694;29;20170;-78
2022/09/29 01:41:29;;;;;;;2.40;1.77;;;;;;;9.06;66.33;95671.00;4851756;29;20655;-78
2022/09/29 01:44:02;;;;;;;3.70;2.00;;;;;;;9.04;66.33;95671.25;4850625;29;20197;-79
2022/09/29 01:46:36;;;;;;;2.75;1.50;;;;;;;9.13;65.92;95674.06;4851857;29;20224;-78
2022/09/29 01:49:02;;;;;;;3.72;2.05;;;;;;;9.19;66.01;95670.38;4844807;29;20308;-78
2022/09/29 01:51:39;;;;;;;3.25;1.50;;;;;;;8.94;66.14;95677.28;4835451;29;20282;-78
2022/09/29 01:54:10;;;;;;;3.05;2.00;;;;;;;8.94;66.33;95684.31;4851623;29;20368;-78
2022/09/29 01:56:49;;;;;;;2.60;1.73;;;;;;;8.84;65.90;95681.78;4836605;29;20200;-78
2022/09/29 01:59:18;;;;;;;3.47;1.60;;;;;;;8.78;65.56;95683.66;4846442;29;20238;-78
2022/09/29 02:01:46;;;;;;;1.88;1.45;;;;;;;8.80;65.91;95687.50;4836876;29;20778;-78
2022/09/29 02:04:18;;;;;;;4.32;1.73;;;;;;;8.73;65.42;95687.03;4850810;29;20237;-78
2022/09/29 02:06:48;;;;;;;3.40;2.45;;;;;;;8.80;66.08;95684.91;4847590;29;20697;-78
2022/09/29 02:09:25;;;;;;;4.05;2.53;;;;;;;8.74;66.06;95680.81;4846560;29;20228;-78
2022/09/29 02:11:51;;;;;;;3.90;2.25;;;;;;;8.66;65.43;95671.00;4846121;29;20664;-78
2022/09/29 02:14:27;;;;;;;5.05;2.00;;;;;;;8.49;66.09;95675.78;4830968;29;20306;-78
2022/09/29 02:17:03;;;;;;;4.97;2.55;;;;;;;8.58;66.37;95680.09;4833378;29;20193;-78
2022/09/29 02:19:31;;;;;;;4.85;2.20;;;;;;;8.72;66.35;95672.53;4850880;29;20314;-78
2022/09/29 02:21:56;;;;;;;3.35;1.95;;;;;;;8.87;65.54;95678.66;4851166;29;20203;-78
2022/09/29 02:24:22;;;;;;;3.88;2.15;;;;;;;8.88;65.61;95670.59;4852915;29;20342;-78
2022/09/29 02:26:48;;;;;;;3.42;2.47;;;;;;;8.90;65.85;95667.75;4835895;29;20619;-79
2022/09/29 02:29:14;;;;;;;4.10;1.95;;;;;;;8.95;65.97;95670.31;4831875;29;20255;-79
2022/09/29 02:31:40;;;;;;;4.63;2.10;;;;;;;9.04;66.38;95671.25;4835756;29;20724;-78
2022/09/29 02:34:07;;;;;;;5.28;2.33;;;;;;;9.04;65.76;95671.25;4850002;29;20376;-78
2022/09/29 02:36:44;;;;;;;5.20;1.92;;;;;;;8.92;65.51;95674.19;4835127;29;20224;-79
2022/09/29 02:39:38;;;;;;;4.78;2.03;;;;;;;8.96;66.72;95674.44;4835841;29;20293;-78
2022/09/29 02:42:31;;;;;;;5.28;2.33;;;;;;;9.00;67.68;95672.84;4852217;29;20330;-78
2022/09/29 02:45:02;;;;;;;5.97;2.25;;;;;;;9.29;67.39;95670.28;4844241;29;20659;-78
2022/09/29 02:47:37;;;;;;;4.47;2.75;;;;;;;9.35;67.05;95671.03;4846659;29;20502;-78
2022/09/29 02:50:30;;;;;;;4.78;1.90;;;;;;;9.41;66.44;95672.53;4835022;29;20297;-78
2022/09/29 02:52:58;;;;;;;4.93;2.20;;;;;;;9.49;66.16;95668.56;4861071;29;20303;-78
2022/09/29 02:55:32;;;;;;;2.75;1.88;;;;;;;9.35;66.26;95673.63;4851282;29;20272;-78
2022/09/29 02:57:57;;;;;;;4.22;2.10;;;;;;;9.45;65.57;95672.75;4827392;29;20197;-78
2022/09/29 03:00:23;;;;;;;3.00;1.75;;;;;;;9.40;65.47;95672.81;4851103;29;20215;-78
2022/09/29 03:02:48;;;;;;;3.20;1.90;;;;;;;9.35;66.14;95673.63;4850326;29;20780;-78
2022/09/29 03:05:19;;;;;;;3.95;1.65;;;;;;;9.26;65.84;95672.66;4827926;29;20319;-78
2022/09/29 03:07:44;;;;;;;5.60;2.10;;;;;;;9.37;65.81;95667.13;4835601;29;20194;-79
2022/09/29 03:10:12;;;;;;;3.00;1.75;;;;;;;9.35;66.35;95669.19;4831464;29;20182;-78
2022/09/29 03:12:38;;;;;;;3.88;2.10;;;;;;;9.46;66.45;95672.50;4850435;29;20209;-78
2022/09/29 03:15:04;;;;;;;3.55;1.88;;;;;;;9.47;66.23;95668.06;4834477;29;20334;-79
2022/09/29 03:17:30;;;;;;;2.70;1.55;;;;;;;9.50;65.93;95676.09;4850298;29;20386;-78
2022/09/29 03:19:56;;;;;;;2.85;2.05;;;;;;;9.35;65.95;95671.03;4852069;29;20276;-78
2022/09/29 03:22:22;;;;;;;4.72;1.75;;;;;;;9.30;66.04;95674.44;4844649;29;20181;-78
2022/09/29 03:24:47;;;;;;;3.67;1.63;;;;;;;9.30;66.48;95668.47;4863255;29;20703;-79
2022/09/29 03:27:12;;;;;;;3.10;1.80;;;;;;;9.38;66.78;95667.88;4861443;29;20668;-78
2022/09/29 03:29:38;;;;;;;2.45;1.60;;;;;;;9.44;66.55;95674.59;4844166;29;20207;-78
2022/09/29 03:32:04;;;;;;;3.80;1.88;;;;;;;9.46;66.44;95669.88;4851371;29;20215;-78
2022/09/29 03:34:30;;;;;;;3.63;2.78;;;;;;;9.43;66.93;95678.22;4849501;29;20222;-79
2022/09/29 03:36:56;;;;;;;5.00;2.08;;;;;;;9.48;66.88;95672.22;4849636;29;20714;-78
2022/09/29 03:39:23;;;;;;;2.80;2.00;;;;;;;9.56;66.76;95669.81;4831861;29;20670;-78
2022/09/29 03:41:49;;;;;;;3.92;2.00;;;;;;;9.54;66.46;95669.31;4833504;29;20321;-78
2022/09/29 03:44:14;;;;;;;3.05;2.13;;;;;;;9.51;67.23;95664.66;4831789;29;20139;-79
2022/09/29 03:46:40;;;;;;;3.90;2.33;;;;;;;9.58;67.24;95664.34;4841453;29;20448;-78
2022/09/29 03:49:05;;;;;;;3.85;1.85;;;;;;;9.65;67.03;95675.16;4849117;29;20172;-78
2022/09/29 03:51:31;;;;;;;6.07;2.55;;;;;;;9.75;66.71;95675.06;4832432;29;20288;-78
2022/09/29 03:53:56;;;;;;;2.72;1.70;;;;;;;9.74;66.26;95672.75;4850366;29;20243;-78
2022/09/29 03:56:21;;;;;;;3.25;1.90;;;;;;;9.72;66.02;95674.84;4846382;29;20220;-78
2022/09/29 03:58:47;;;;;;;5.45;2.10;;;;;;;9.71;65.58;95689.66;4843035;29;20559;-79
2022/09/29 04:01:12;;;;;;;4.25;2.28;;;;;;;9.62;65.22;95683.50;4834299;29;20306;-78
2022/09/29 04:03:37;;;;;;;5.32;1.73;;;;;;;9.60;65.43;95692.66;4834302;29;20199;-78
2022/09/29 04:06:03;;;;;;;3.25;1.95;;;;;;;9.65;66.11;95690.00;4845719;29;20252;-78
2022/09/29 04:08:28;;;;;;;3.42;1.80;;;;;;;9.64;65.56;95693.63;4849713;29;20200;-78
2022/09/29 04:10:54;;;;;;;3.60;2.08;;;;;;;9.64;65.62;95694.41;4839783;29;20223;-79
2022/09/29 04:13:20;;;;;;;3.15;1.70;;;;;;;9.63;65.48;95694.66;4838460;29;20182;-78
2022/09/29 04:15:46;;;;;;;4.47;1.92;;;;;;;9.56;65.20;95692.38;4850166;29;20183;-78
2022/09/29 04:18:12;;;;;;;3.25;1.95;;;;;;;9.46;65.45;95690.69;4861389;29;20579;-78
2022/09/29 04:20:38;;;;;;;2.78;1.60;;;;;;;9.35;65.69;95692.56;4849862;29;20205;-78
2022/09/29 04:23:03;;;;;;;3.72;1.38;;;;;;;9.31;66.43;95694.16;4834791;29;20213;-78
2022/09/29 04:25:28;;;;;;;3.55;1.70;;;;;;;9.29;66.10;95692.91;4848722;29;20187;-78
2022/09/29 04:27:54;;;;;;;3.95;1.70;;;;;;;9.25;66.35;95695.25;4833076;29;20208;-78
2022/09/29 04:30:19;;;;;;;2.95;1.63;;;;;;;9.22;66.29;95695.81;4836276;29;20651;-78
2022/09/29 04:32:45;;;;;;;3.72;1.30;;;;;;;9.26;66.34;95704.59;4850321;29;20591;-78
2022/09/29 04:35:10;;;;;;;3.53;1.80;;;;;;;9.29;66.71;95703.28;4848864;29;20579;-78
2022/09/29 04:37:35;;;;;;;4.15;1.88;;;;;;;9.25;66.51;95697.84;4850087;29;20612;-78
2022/09/29 04:40:02;;;;;;;4.03;1.77;;;;;;;9.20;67.11;95703.06;4865574;28;20653;-78
2022/09/29 04:42:28;;;;;;;3.63;2.17;;;;;;;9.26;67.57;95694.22;4848375;29;20209;-78
2022/09/29 04:44:53;;;;;;;3.35;2.08;;;;;;;9.28;67.42;95704.31;4844866;29;20234;-78
2022/09/29 04:47:18;;;;;;;3.58;2.10;;;;;;;9.33;67.64;95699.09;4834541;29;20221;-79
2022/09/29 04:49:44;;;;;;;4.38;1.92;;;;;;;9.33;67.42;95699.09;4848601;29;20227;-78
2022/09/29 04:52:11;;;;;;;3.50;1.88;;;;;;;9.29;67.31;95698.88;4858598;29;20695;-78
2022/09/29 04:54:36;;;;;;;5.25;2.65;;;;;;;9.37;67.19;95689.69;4849970;29;20349;-78
2022/09/29 04:57:01;;;;;;;6.70;2.95;;;;;;;9.42;67.35;95691.47;4848494;29;20165;-79
2022/09/29 04:59:27;;;;;;;9.93;3.55;;;;;;;9.50;66.89;95698.69;4832137;29;20279;-79
2022/09/29 05:01:53;;;;;;;4.63;3.47;;;;;;;9.53;66.07;95698.91;4833742;29;20628;-79
2022/09/29 05:04:19;;;;;;;4.65;3.15;;;;;;;9.57;66.50;95702.50;4837328;29;20166;-78
2022/09/29 05:06:44;;;;;;;4.65;2.80;;;;;;;9.59;66.44;95701.47;4821580;29;20164;-78
2022/09/29 05:09:10;;;;;;;3.83;2.40;;;;;;;9.52;66.53;95699.19;4850726;29;20252;-79
2022/09/29 05:11:35;;;;;;;4.30;2.50;;;;;;;9.50;67.15;95698.69;4864828;29;20216;-78
2022/09/29 05:14:01;;;;;;;3.53;2.10;;;;;;;9.51;67.01;95703.63;4833364;29;20205;-78
2022/09/29 05:16:26;;;;;;;4.10;3.47;;;;;;;9.49;66.29;95702.34;4853018;29;20215;-79
2022/09/29 05:18:52;;;;;;;5.38;3.67;;;;;;;9.50;66.99;95709.84;4836047;29;20147;-78
2022/09/29 05:21:17;;;;;;;5.47;2.53;;;;;;;9.47;66.69;95705.19;4854009;29;20235;-78
2022/09/29 05:23:43;;;;;;;6.13;3.13;;;;;;;9.48;67.31;95713.78;4836721;29;20207;-79
2022/09/29 05:26:10;;;;;;;4.13;2.05;;;;;;;9.47;66.20;95714.81;4836904;29;20286;-79
2022/09/29 05:28:37;;;;;;;3.40;1.83;;;;;;;9.45;66.63;95720.28;4850550;29;20192;-78
2022/09/29 05:31:07;;;;;;;3.38;2.08;;;;;;;9.34;66.63;95713.66;4836537;29;20488;-78
2022/09/29 05:33:34;;;;;;;2.40;1.80;;;;;;;9.46;66.74;95719.25;4851780;29;20291;-79
2022/09/29 05:35:59;;;;;;;3.95;2.15;;;;;;;9.54;66.53;95713.47;4836717;29;20664;-78
2022/09/29 05:38:25;;;;;;;2.65;2.15;;;;;;;9.64;65.78;95722.22;4857590;29;20165;-78
2022/09/29 05:40:51;;;;;;;3.05;2.20;;;;;;;9.70;65.62;95721.13;4848292;29;20734;-78
2022/09/29 05:43:17;;;;;;;4.00;2.20;;;;;;;9.71;65.76;95726.03;4850023;29;20306;-78
2022/09/29 05:45:43;;;;;;;5.07;2.25;;;;;;;9.69;67.03;95724.78;4846986;29;20287;-78
2022/09/29 05:48:08;;;;;;;5.13;2.20;;;;;;;9.68;66.55;95723.22;4847257;29;20275;-78
2022/09/29 05:50:40;;;;;;;5.03;2.15;;;;;;;9.72;66.81;95721.63;4851440;29;20228;-78
2022/09/29 05:53:10;;;;;;;6.00;2.47;;;;;;;9.68;67.23;95721.41;4849535;29;20296;-78
2022/09/29 05:55:36;;;;;;;4.68;2.45;;;;;;;9.82;67.01;95721.53;4831646;29;20278;-79
2022/09/29 05:58:02;;;;;;;4.70;2.40;;;;;;;9.89;67.17;95721.97;4836491;29;20230;-79
2022/09/29 06:00:30;;;;;;;4.22;2.38;;;;;;;9.99;66.85;95728.91;4852687;29;20212;-79
2022/09/29 06:03:00;;;;;;;5.72;3.25;;;;;;;9.99;66.58;95726.31;4851251;29;20195;-79
2022/09/29 06:05:26;;;;;;;6.40;3.28;;;;;;;10.11;66.57;95720.72;4850520;29;20235;-78
2022/09/29 06:07:52;;;;;;;12.60;6.22;;;;;;;10.11;66.59;95725.94;4852959;29;20204;-79
2022/09/29 06:10:17;;;;;;;10.93;5.47;;;;;;;10.11;66.56;95733.72;4837013;29;20246;-79
2022/09/29 06:12:43;;;;;;;8.80;5.30;;;;;;;10.04;66.40;95722.88;4853039;29;20351;-79
2022/09/29 06:15:10;;;;;;;7.47;4.93;;;;;;;10.08;66.68;95729.09;4852185;29;20215;-79
2022/09/29 06:17:35;;;;;;;10.75;6.63;;;;;;;10.07;66.53;95727.50;4846677;29;20200;-79
2022/09/29 06:20:01;;;;;;;15.98;8.43;;;;;;;10.06;66.46;95728.59;4836539;29;20294;-79
2022/09/29 06:22:26;;;;;;;45.10;19.38;;;;;;;10.08;66.40;95721.28;4851079;29;20278;-79
2022/09/29 06:24:53;;;;;;;57.85;24.30;;;;;;;10.11;66.22;95733.72;4844678;29;20232;-79
2022/09/29 06:27:18;;;;;;;24.63;11.00;;;;;;;10.13;66.37;95737.59;4862494;29;20452;-79
2022/09/29 06:29:44;;;;;;;13.50;6.93;;;;;;;10.16;66.44;95728.47;4832985;29;20792;-79
2022/09/29 06:32:09;;;;;;;8.98;3.85;;;;;;;10.17;66.93;95727.41;4850613;29;20255;-78
2022/09/29 06:37:33;;;;;;;5.20;3.40;;;;;;;10.21;67.34;95736.22;4821330;29;20204;-79
2022/09/29 06:37:35;;;;;;;8.48;3.42;;;;;;;10.33;67.26;95729.88;4860381;29;20173;-79
2022/09/29 06:40:03;;;;;;;7.78;4.05;;;;;;;10.38;66.97;95727.22;4848223;29;20643;-78
2022/09/29 06:42:28;;;;;;;5.80;3.35;;;;;;;10.46;67.02;95734.41;4836321;29;20283;-78
2022/09/29 06:44:54;;;;;;;6.70;3.75;;;;;;;10.50;67.51;95740.59;4846689;29;20303;-79
2022/09/29 06:47:19;;;;;;;8.32;4.22;;;;;;;10.52;67.06;95733.31;4835371;29;20280;-79
2022/09/29 06:49:44;;;;;;;5.95;3.83;;;;;;;10.62;66.95;95737.59;4851301;29;20106;-79
2022/09/29 06:52:10;;;;;;;8.15;3.47;;;;;;;10.63;66.84;95739.91;4846606;29;20195;-79
2022/09/29 06:54:35;;;;;;;4.50;2.72;;;;;;;10.66;66.65;95741.19;4842366;29;20643;-79
2022/09/29 06:57:00;;;;;;;5.03;2.80;;;;;;;10.72;66.83;95747.09;4834555;29;20247;-79
2022/09/29 06:59:26;;;;;;;4.32;3.17;;;;;;;10.76;66.74;95742.88;4844937;29;20668;-79
2022/09/29 07:01:51;;;;;;;6.65;3.58;;;;;;;10.78;66.96;95740.75;4852481;29;20192;-79
2022/09/29 07:04:18;;;;;;;6.72;3.00;;;;;;;10.81;66.61;95745.41;4846818;29;20635;-79
2022/09/29 07:06:44;;;;;;;5.47;3.33;;;;;;;10.84;67.00;95742.25;4851989;29;20204;-79
2022/09/29 07:09:14;;;;;;;6.30;3.58;;;;;;;10.87;66.78;95746.91;4867305;29;20275;-79
2022/09/29 07:11:41;;;;;;;7.25;3.63;;;;;;;10.97;67.22;95756.41;4851804;29;20208;-79
2022/09/29 07:14:06;;;;;;;8.20;4.30;;;;;;;11.05;66.77;95761.78;4854723;29;20204;-79
2022/09/29 07:16:32;;;;;;;12.35;7.28;;;;;;;11.09;67.82;95748.16;4850737;29;20193;-79
2022/09/29 07:18:57;;;;;;;14.65;9.10;;;;;;;11.20;67.83;95755.56;4856916;29;20228;-79
2022/09/29 07:21:22;;;;;;;9.88;6.40;;;;;;;11.32;67.41;95757.72;4843826;29;20278;-79
2022/09/29 07:23:48;;;;;;;10.38;5.90;;;;;;;11.49;67.16;95769.47;4866986;29;20360;-78
2022/09/29 07:26:15;;;;;;;9.35;6.15;;;;;;;11.61;67.66;95767.97;4862906;28;20587;-79
2022/09/29 07:28:40;;;;;;;14.32;8.73;;;;;;;11.69;67.71;95768.41;4849668;29;20238;-79
2022/09/29 07:31:17;;;;;;;17.77;11.18;;;;;;;11.71;68.19;95766.28;4846304;29;20197;-79
2022/09/29 07:33:44;;;;;;;15.75;10.98;;;;;;;11.81;68.06;95764.25;4848810;29;20695;-79
2022/09/29 07:36:10;;;;;;;19.23;10.95;;;;;;;11.89;67.75;95762.84;4851753;29;20279;-79
2022/09/29 07:38:35;;;;;;;16.92;9.23;;;;;;;12.05;67.24;95765.97;4865630;28;20243;-79
2022/09/29 07:41:06;;;;;;;14.23;9.35;;;;;;;12.09;67.17;95766.16;4865744;29;20132;-79
2022/09/29 07:43:32;;;;;;;13.20;8.93;;;;;;;12.30;66.43;95764.75;4850146;29;20200;-79
2022/09/29 07:45:59;;;;;;;11.85;8.43;;;;;;;12.44;66.88;95767.38;4817814;29;20526;-79
2022/09/29 07:48:25;;;;;;;12.07;8.23;;;;;;;12.55;67.76;95767.94;4851239;29;20355;-78
2022/09/29 07:50:51;;;;;;;14.25;8.18;;;;;;;12.71;66.79;95769.19;4835678;29;20199;-78
2022/09/29 07:53:16;;;;;;;10.35;7.07;;;;;;;12.85;66.38;95770.97;4850274;29;20196;-79
2022/09/29 07:55:42;;;;;;;7.88;5.35;;;;;;;12.92;65.77;95772.16;4849637;29;20219;-79
2022/09/29 07:58:08;;;;;;;8.65;4.13;;;;;;;13.00;65.25;95777.72;4852107;29;20276;-80
2022/09/29 08:00:34;;;;;;;8.02;4.15;;;;;;;12.98;65.35;95782.47;4849595;29;20229;-79
2022/09/29 08:03:05;;;;;;;6.40;4.32;;;;;;;12.86;65.40;95775.91;4836491;29;20659;-79
2022/09/29 08:05:34;;;;;;;9.88;4.25;;;;;;;12.98;65.44;95779.88;4842555;29;20196;-79
2022/09/29 08:08:03;;;;;;;8.80;4.30;;;;;;;12.95;65.16;95785.69;4828541;29;20451;-79
2022/09/29 08:10:32;;;;;;;5.85;4.10;;;;;;;13.04;65.44;95789.94;4834595;29;20244;-79
2022/09/29 08:12:58;;;;;;;6.43;4.88;;;;;;;13.17;65.58;95796.16;4846677;29;20181;-79
2022/09/29 08:15:24;;;;;;;8.43;5.22;;;;;;;13.42;64.79;95791.50;4850288;29;20307;-80
2022/09/29 08:17:53;;;;;;;7.57;4.50;;;;;;;13.52;64.20;95799.13;4833487;29;20317;-79
2022/09/29 08:20:20;;;;;;;7.78;4.68;;;;;;;13.72;64.34;95800.47;4849248;29;20583;-79
2022/09/29 08:22:45;;;;;;;5.50;4.15;;;;;;;13.97;62.86;95796.47;4850038;29;20173;-79
2022/09/29 08:25:11;;;;;;;6.85;3.80;;;;;;;14.21;62.80;95805.81;4849791;29;20753;-79
2022/09/29 08:27:36;;;;;;;4.85;3.42;;;;;;;14.34;62.04;95797.13;4849028;29;20174;-79
2022/09/29 08:30:04;;;;;;;5.88;4.25;;;;;;;14.45;61.84;95802.09;4835030;29;20177;-79
2022/09/29 08:32:30;;;;;;;7.88;4.32;;;;;;;14.60;62.06;95810.31;4849801;29;20345;-79
2022/09/29 08:34:56;;;;;;;9.00;3.97;;;;;;;14.75;61.03;95814.38;4851708;29;20200;-79
2022/09/29 08:37:21;;;;;;;7.45;4.10;;;;;;;14.84;61.67;95811.78;4850225;29;20654;-79
2022/09/29 08:39:46;;;;;;;7.03;3.42;;;;;;;14.95;61.10;95814.88;4854120;29;20275;-79
2022/09/29 08:42:56;;;;;;;8.63;4.32;;;;;;;14.86;60.34;95807.00;4853701;29;20228;-79
2022/09/29 08:45:31;;;;;;;5.25;3.42;;;;;;;15.15;59.62;95810.91;4850696;29;20563;-79
2022/09/29 08:48:07;;;;;;;6.80;4.28;;;;;;;15.11;59.06;95813.38;4864996;29;20221;-79
2022/09/29 08:50:38;;;;;;;6.55;4.03;;;;;;;15.38;58.35;95810.75;4838772;29;20216;-79
2022/09/29 08:53:11;;;;;;;7.45;3.75;;;;;;;15.16;59.07;95818.47;4861085;29;20801;-80
2022/09/29 08:56:01;;;;;;;7.22;3.38;;;;;;;15.12;59.61;95814.91;4854738;29;20554;-79
2022/09/29 08:58:27;;;;;;;5.95;2.80;;;;;;;15.41;58.65;95820.66;4838902;29;20259;-79
2022/09/29 09:01:21;;;;;;;5.57;2.92;;;;;;;15.25;58.04;95817.69;4838508;29;20635;-79
2022/09/29 09:03:58;;;;;;;4.95;2.80;;;;;;;15.10;58.57;95829.41;4853676;29;20244;-79
2022/09/29 09:06:33;;;;;;;4.22;2.75;;;;;;;15.07;59.07;95827.41;4857166;29;20165;-79
2022/09/29 09:09:26;;;;;;;4.88;2.50;;;;;;;15.13;58.86;95831.41;4854621;29;20200;-79
2022/09/29 09:12:13;;;;;;;4.22;2.72;;;;;;;15.32;58.24;95831.13;4853084;29;20168;-79
2022/09/29 09:14:57;;;;;;;3.75;2.35;;;;;;;15.22;58.65;95829.56;4854440;29;20196;-79
2022/09/29 09:17:24;;;;;;;4.75;2.63;;;;;;;15.28;59.55;95836.19;4851972;29;20625;-79
2022/09/29 09:19:58;;;;;;;30.10;21.73;;;;;;;15.35;59.34;95835.75;4853012;29;20261;-79
2022/09/29 09:22:29;;;;;;;6.38;3.70;;;;;;;15.44;57.44;95835.75;4857386;29;20675;-80
2022/09/29 09:25:04;;;;;;;6.85;2.63;;;;;;;15.29;57.48;95839.59;4854359;29;20177;-78
2022/09/29 09:27:37;;;;;;;6.93;2.33;;;;;;;15.38;57.59;95837.75;4838454;29;20170;-79
2022/09/29 09:30:14;;;;;;;6.60;2.45;;;;;;;15.52;57.54;95837.59;4853273;29;20291;-79
2022/09/29 09:32:46;;;;;;;4.03;2.08;;;;;;;15.55;57.08;95848.25;4854498;29;20757;-79
2022/09/29 09:35:33;;;;;;;4.70;2.15;;;;;;;15.47;57.39;95843.78;4854539;29;20208;-79
2022/09/29 09:38:02;;;;;;;3.35;2.03;;;;;;;15.52;57.05;95837.59;4862389;29;20318;-79
2022/09/29 09:40:37;;;;;;;3.25;1.67;;;;;;;15.71;55.99;95835.47;4852685;29;20225;-80
2022/09/29 09:43:09;;;;;;;5.20;1.85;;;;;;;15.68;56.50;95840.56;4852638;29;20216;-80
2022/09/29 09:45:38;;;;;;;3.80;1.40;;;;;;;15.77;55.63;95833.47;4844221;29;20832;-79
2022/09/29 09:48:18;;;;;;;2.97;1.42;;;;;;;15.64;55.43;95834.38;4853345;29;20311;-79
2022/09/29 09:50:45;;;;;;;3.95;1.30;;;;;;;15.98;54.87;95832.81;4836441;29;20650;-79
2022/09/29 09:53:14;;;;;;;3.92;1.77;;;;;;;15.87;53.81;95838.41;4838064;29;20215;-79
2022/09/29 09:55:40;;;;;;;2.65;1.45;;;;;;;16.18;53.09;95828.78;4838369;29;20172;-79
2022/09/29 09:58:27;;;;;;;5.60;1.70;;;;;;;16.13;54.14;95834.19;4851470;29;20255;-79
2022/09/29 10:01:01;;;;;;;3.75;1.50;;;;;;;16.23;53.83;95833.84;4851738;29;20208;-79
2022/09/29 10:03:30;;;;;;;3.58;1.20;;;;;;;16.51;53.09;95838.69;4837814;29;20484;-79
2022/09/29 10:05:56;;;;;;;2.60;1.30;;;;;;;16.78;52.55;95827.00;4862252;29;20228;-80
2022/09/29 10:08:24;;;;;;;2.90;1.25;;;;;;;16.88;51.98;95831.91;4867039;29;20503;-79
2022/09/29 10:10:50;;;;;;;4.63;1.10;;;;;;;16.95;52.53;95834.81;4854970;29;20291;-79
2022/09/29 10:13:16;;;;;;;4.28;1.23;;;;;;;17.07;51.42;95826.25;4840673;29;20240;-80
2022/09/29 10:15:55;;;;;;;3.65;1.60;;;;;;;17.06;51.13;95831.81;4837618;29;20139;-79
2022/09/29 10:18:26;;;;;;;3.35;1.23;;;;;;;17.15;50.65;95835.94;4836799;29;20557;-79
2022/09/29 10:20:51;;;;;;;4.55;1.50;;;;;;;17.29;51.04;95838.31;4836773;29;20264;-80
2022/09/29 10:23:22;;;;;;;4.40;1.48;;;;;;;17.14;51.71;95836.25;4853588;29;20304;-80
2022/09/29 10:25:54;;;;;;;2.10;1.13;;;;;;;17.07;52.17;95835.97;4851807;29;20181;-79
2022/09/29 10:28:21;;;;;;;2.88;1.30;;;;;;;17.27;50.20;95839.72;4837574;29;20224;-79
2022/09/29 10:30:46;;;;;;;1.92;1.20;;;;;;;17.33;49.22;95839.22;4836741;29;20223;-79
2022/09/29 10:33:20;;;;;;;3.70;1.45;;;;;;;17.35;49.40;95834.41;4851655;29;20318;-80
2022/09/29 10:35:47;;;;;;;3.20;0.93;;;;;;;17.75;47.62;95833.94;4852342;29;20783;-80
2022/09/29 10:38:22;;;;;;;5.38;0.82;;;;;;;17.60;47.53;95837.16;4833777;29;20676;-79
2022/09/29 10:41:01;;;;;;;2.10;0.93;;;;;;;17.33;47.63;95836.59;4849145;29;20545;-80
2022/09/29 10:43:40;;;;;;;3.05;1.30;;;;;;;17.07;49.60;95839.38;4837355;29;20216;-79
2022/09/29 10:46:31;;;;;;;3.35;0.90;;;;;;;16.99;49.43;95843.59;4849042;29;20200;-79
2022/09/29 10:49:17;;;;;;;2.72;0.60;;;;;;;17.11;47.84;95842.16;4854311;29;20189;-79
2022/09/29 10:51:54;;;;;;;;;;;;;;;16.75;48.93;95841.53;4852004;29;20293;-79
2022/09/29 10:54:21;;;;;;;2.28;0.90;;;;;;;17.01;49.20;95843.28;4851424;29;20459;-79
2022/09/29 10:56:47;;;;;;;1.65;0.50;;;;;;;16.92;50.32;95845.97;4836741;29;20700;-79
2022/09/29 10:59:14;;;;;;;3.55;1.17;;;;;;;16.95;49.03;95847.19;4836760;29;20354;-79
2022/09/29 11:01:48;;;;;;;2.20;0.80;;;;;;;16.84;47.50;95847.56;4850635;29;20228;-80
2022/09/29 11:04:33;;;;;;;3.00;1.00;;;;;;;16.57;50.28;95853.19;4850168;29;20284;-79
2022/09/29 11:07:10;;;;;;;1.77;0.68;;;;;;;16.63;49.15;95863.22;4848962;29;20196;-79
2022/09/29 11:09:40;;;;;;;2.45;0.82;;;;;;;16.64;49.95;95853.50;4850623;29;20252;-80
2022/09/29 11:12:25;;;;;;;1.80;0.90;;;;;;;16.55;49.13;95861.38;4836286;29;20278;-78
2022/09/29 11:14:50;;;;;;;2.53;0.90;;;;;;;16.82;49.21;95857.56;4833506;29;20530;-82
2022/09/29 11:17:25;;;;;;;3.28;0.93;;;;;;;16.63;49.20;95860.59;4853503;29;20252;-76
2022/09/29 11:19:52;;;;;;;1.90;0.70;;;;;;;16.75;49.97;95865.19;4853414;29;20368;-77
2022/09/29 11:22:40;;;;;;;1.52;0.90;;;;;;;16.51;51.12;95855.22;4836777;29;20291;-80
2022/09/29 11:25:12;;;;;;;4.80;1.38;;;;;;;16.44;51.63;95850.47;4836364;29;20165;-81
2022/09/29 11:27:59;;;;;;;5.80;3.67;;;;;;;16.43;53.73;95853.41;4853978;29;20239;-77
2022/09/29 11:30:32;;;;;;;7.75;4.15;;;;;;;16.55;54.28;95858.75;4852674;29;20321;-78
2022/09/29 11:33:22;;;;;;;5.28;3.25;;;;;;;16.52;54.34;95862.03;4836957;29;20737;-79
2022/09/29 11:35:57;;;;;;;4.35;2.45;;;;;;;16.73;53.63;95856.84;4853144;29;20306;-77
2022/09/29 11:38:41;;;;;;;3.70;2.22;;;;;;;16.71;52.65;95853.78;4851871;29;20181;-77
2022/09/29 11:41:38;;;;;;;12.13;7.63;;;;;;;16.29;53.69;95859.59;4851321;29;20315;-78
2022/09/29 11:44:15;;;;;;;9.40;4.45;;;;;;;16.56;53.28;95857.69;4837865;29;20194;-79
2022/09/29 11:46:48;;;;;;;6.88;3.28;;;;;;;16.59;54.41;95862.31;4851154;29;20201;-77
2022/09/29 11:49:44;;;;;;;7.63;3.83;;;;;;;16.42;54.42;95862.38;4837662;29;20740;-78
2022/09/29 11:52:47;;;;;;;10.35;5.93;;;;;;;16.35;53.82;95860.22;4852871;29;20386;-77